Time;durP1;ratioP1;P1;durP2;ratioP2;P2;SDS_P1;SDS_P2;PMS_P1;PMS_P2;Temp;Humidity;BMP_temperature;BMP_pressure;BME280_temperature;BME280_humidity;BME280_pressure;Samples;Min_cycle;Max_cycle;Signal;HPM_P1;HPM_P2
2021/08/18 00:01:22;;;;;;;;;;;;;;;;;;5013189;28;19971;-69
2021/08/18 00:03:49;;;;;;;;;;;;;;;;;;5015430;28;19957;-68
2021/08/18 00:06:16;;;;;;;;;;;;;;;;;;5011795;28;20290;-69
2021/08/18 00:08:45;;;;;;;;;;;;;;;;;;5010541;28;19926;-70
2021/08/18 00:11:12;;;;;;;;;;;;;;;;;;5015026;28;20398;-70
2021/08/18 00:13:39;;;;;;;;;;;;;;;;;;5007516;28;19931;-71
2021/08/18 00:16:06;;;;;;;;;;;;;;;;;;5011926;28;19987;-70
2021/08/18 00:18:33;;;;;;;;;;;;;;;;;;5019730;28;20011;-69
2021/08/18 00:21:00;;;;;;;;;;;;;;;;;;5023337;28;20463;-68
2021/08/18 00:23:27;;;;;;;;;;;;;;;;;;5018010;28;20315;-69
2021/08/18 00:25:55;;;;;;;;;;;;;;;;;;5015833;28;19926;-69
2021/08/18 00:28:22;;;;;;;;;;;;;;;;;;5008160;28;20296;-69
2021/08/18 00:30:49;;;;;;;;;;;;;;;;;;5013121;28;20294;-69
2021/08/18 00:33:16;;;;;;;;;;;;;;;;;;5009418;28;20452;-70
2021/08/18 00:35:43;;;;;;;;;;;;;;;;;;5014225;28;19930;-70
2021/08/18 00:38:10;;;;;;;;;;;;;;;;;;5015774;28;19968;-69
2021/08/18 00:40:37;;;;;;;;;;;;;;;;;;5017617;28;20015;-70
2021/08/18 00:43:04;;;;;;;;;;;;;;;;;;5023839;28;20011;-70
2021/08/18 00:45:31;;;;;;;;;;;;;;;;;;5016602;28;19933;-69
2021/08/18 00:47:59;;;;;;;;;;;;;;;;;;5018459;28;20044;-69
2021/08/18 00:50:26;;;;;;;;;;;;;;;;;;5019287;28;20349;-68
2021/08/18 00:52:52;;;;;;;;;;;;;;;;;;5013595;28;19926;-70
2021/08/18 00:55:19;;;;;;;;;;;;;;;;;;5021924;28;19961;-70
2021/08/18 00:57:46;;;;;;;;;;;;;;;;;;5016551;28;19926;-69
2021/08/18 01:00:13;;;;;;;;;;;;;;;;;;5022427;28;19996;-70
2021/08/18 01:02:43;;;;;;;;;;;;;;;;;;5028373;28;19952;-70
2021/08/18 01:05:10;;;;;;;;;;;;;;;;;;5019773;28;19992;-67
2021/08/18 01:07:37;;;;;;;;;;;;;;;;;;5016919;28;19925;-70
2021/08/18 01:10:04;;;;;;;;;;;;;;;;;;5021308;28;19989;-69
2021/08/18 01:12:31;;;;;;;;;;;;;;;;;;5020104;28;19931;-70
2021/08/18 01:14:58;;;;;;;;;;;;;;;;;;5013929;28;19932;-70
2021/08/18 01:17:25;;;;;;;;;;;;;;;;;;5019262;28;19925;-70
2021/08/18 01:19:52;;;;;;;;;;;;;;;;;;5018143;28;20217;-70
2021/08/18 01:22:19;;;;;;;;;;;;;;;;;;5019442;28;20152;-69
2021/08/18 01:24:46;;;;;;;;;;;;;;;;;;5019795;28;20008;-70
2021/08/18 01:27:13;;;;;;;;;;;;;;;;;;5023534;28;20340;-69
2021/08/18 01:29:40;;;;;;;;;;;;;;;;;;5023812;28;20286;-69
2021/08/18 01:32:07;;;;;;;;;;;;;;;;;;5014934;28;20008;-70
2021/08/18 01:34:35;;;;;;;;;;;;;;;;;;5020338;28;20172;-69
2021/08/18 01:37:02;;;;;;;;;;;;;;;;;;5023766;28;20304;-69
2021/08/18 01:39:29;;;;;;;;;;;;;;;;;;5030565;28;19929;-69
2021/08/18 01:41:56;;;;;;;;;;;;;;;;;;5021117;28;20023;-70
2021/08/18 01:44:23;;;;;;;;;;;;;;;;;;5019905;28;20287;-68
2021/08/18 01:46:50;;;;;;;;;;;;;;;;;;5019324;28;19925;-68
2021/08/18 01:49:17;;;;;;;;;;;;;;;;;;5021746;28;19931;-69
2021/08/18 01:51:46;;;;;;;;;;;;;;;;;;5025129;28;20458;-69
2021/08/18 01:54:13;;;;;;;;;;;;;;;;;;5015549;28;20012;-69
2021/08/18 01:56:40;;;;;;;;;;;;;;;;;;5016945;28;19965;-69
2021/08/18 01:59:07;;;;;;;;;;;;;;;;;;5016982;28;19932;-69
2021/08/18 02:01:34;;;;;;;;;;;;;;;;;;5018686;28;19975;-69
2021/08/18 02:04:01;;;;;;;;;;;;;;;;;;5010961;28;20381;-69
2021/08/18 02:06:31;;;;;;;;;;;;;;;;;;5010981;28;19971;-69
2021/08/18 02:08:58;;;;;;;;;;;;;;;;;;5011235;28;19932;-70
2021/08/18 02:11:25;;;;;;;;;;;;;;;;;;5019260;28;19925;-70
2021/08/18 02:13:52;;;;;;;;;;;;;;;;;;5016651;28;19929;-69
2021/08/18 02:16:19;;;;;;;;;;;;;;;;;;5024216;28;20012;-68
2021/08/18 02:18:46;;;;;;;;;;;;;;;;;;5018000;28;19926;-69
2021/08/18 02:21:13;;;;;;;;;;;;;;;;;;5020930;28;19971;-69
2021/08/18 02:23:40;;;;;;;;;;;;;;;;;;5016867;28;19979;-69
2021/08/18 02:26:07;;;;;;;;;;;;;;;;;;5016634;28;19969;-69
2021/08/18 02:28:34;;;;;;;;;;;;;;;;;;5013286;28;19973;-69
2021/08/18 02:31:01;;;;;;;;;;;;;;;;;;5011631;28;19925;-69
2021/08/18 02:33:28;;;;;;;;;;;;;;;;;;5006030;28;20552;-69
2021/08/18 02:35:55;;;;;;;;;;;;;;;;;;5016210;28;20004;-68
2021/08/18 02:38:22;;;;;;;;;;;;;;;;;;5012401;28;19940;-69
2021/08/18 02:40:49;;;;;;;;;;;;;;;;;;5013691;28;19933;-69
2021/08/18 02:43:16;;;;;;;;;;;;;;;;;;5020145;28;19988;-69
2021/08/18 02:45:43;;;;;;;;;;;;;;;;;;5019115;28;20440;-69
2021/08/18 02:48:10;;;;;;;;;;;;;;;;;;5010420;28;19930;-69
2021/08/18 02:50:37;;;;;;;;;;;;;;;;;;5018063;28;20275;-70
2021/08/18 02:53:04;;;;;;;;;;;;;;;;;;5024058;28;20008;-71
2021/08/18 02:55:32;;;;;;;;;;;;;;;;;;5027440;28;19987;-69
2021/08/18 02:57:58;;;;;;;;;;;;;;;;;;5026333;28;19964;-68
2021/08/18 03:00:25;;;;;;;;;;;;;;;;;;5021692;28;19926;-69
2021/08/18 03:02:52;;;;;;;;;;;;;;;;;;5016586;28;19931;-70
2021/08/18 03:05:19;;;;;;;;;;;;;;;;;;5024696;28;19939;-70
2021/08/18 03:07:46;;;;;;;;;;;;;;;;;;5019922;28;20363;-69
2021/08/18 03:10:14;;;;;;;;;;;;;;;;;;5020353;28;20452;-69
2021/08/18 03:12:41;;;;;;;;;;;;;;;;;;5019367;28;19929;-68
2021/08/18 03:15:08;;;;;;;;;;;;;;;;;;5013110;28;19956;-69
2021/08/18 03:17:35;;;;;;;;;;;;;;;;;;5022497;28;20016;-70
2021/08/18 03:20:02;;;;;;;;;;;;;;;;;;5022822;28;19934;-70
2021/08/18 03:22:29;;;;;;;;;;;;;;;;;;5022865;28;19999;-70
2021/08/18 03:24:56;;;;;;;;;;;;;;;;;;5020347;28;19932;-70
2021/08/18 03:27:23;;;;;;;;;;;;;;;;;;5021128;28;19936;-70
2021/08/18 03:29:50;;;;;;;;;;;;;;;;;;5024163;28;19933;-70
2021/08/18 03:32:17;;;;;;;;;;;;;;;;;;5020775;28;19988;-70
2021/08/18 03:34:44;;;;;;;;;;;;;;;;;;5018745;28;19925;-69
2021/08/18 03:37:12;;;;;;;;;;;;;;;;;;5032487;28;19925;-70
2021/08/18 03:39:39;;;;;;;;;;;;;;;;;;5022106;28;19941;-69
2021/08/18 03:42:05;;;;;;;;;;;;;;;;;;5018597;28;19972;-70
2021/08/18 03:44:32;;;;;;;;;;;;;;;;;;5014991;28;20197;-69
2021/08/18 03:46:59;;;;;;;;;;;;;;;;;;5012310;28;19944;-69
2021/08/18 03:49:26;;;;;;;;;;;;;;;;;;5012721;28;19936;-69
2021/08/18 03:51:53;;;;;;;;;;;;;;;;;;5013093;28;20449;-70
2021/08/18 03:54:20;;;;;;;;;;;;;;;;;;5011974;28;19925;-70
2021/08/18 03:56:47;;;;;;;;;;;;;;;;;;5012675;28;19931;-70
2021/08/18 03:59:14;;;;;;;;;;;;;;;;;;5012286;28;20136;-70
2021/08/18 04:01:41;;;;;;;;;;;;;;;;;;5009992;28;19930;-70
2021/08/18 04:04:08;;;;;;;;;;;;;;;;;;5011514;28;19951;-70
2021/08/18 04:06:35;;;;;;;;;;;;;;;;;;5009577;28;19976;-70
2021/08/18 04:09:02;;;;;;;;;;;;;;;;;;5011594;28;20027;-70
2021/08/18 04:11:29;;;;;;;;;;;;;;;;;;5010218;28;20783;-70
2021/08/18 04:13:56;;;;;;;;;;;;;;;;;;5010704;28;20047;-69
2021/08/18 04:16:23;;;;;;;;;;;;;;;;;;5006087;28;20282;-70
2021/08/18 04:18:50;;;;;;;;;;;;;;;;;;5007825;28;20656;-70
2021/08/18 04:21:17;;;;;;;;;;;;;;;;;;5013835;28;19924;-70
2021/08/18 04:23:44;;;;;;;;;;;;;;;;;;5019954;28;19932;-70
2021/08/18 04:26:11;;;;;;;;;;;;;;;;;;5016897;28;19931;-70
2021/08/18 04:28:38;;;;;;;;;;;;;;;;;;5005270;28;20180;-70
2021/08/18 04:31:05;;;;;;;;;;;;;;;;;;5010619;28;19925;-69
2021/08/18 04:33:32;;;;;;;;;;;;;;;;;;5016154;28;20028;-69
2021/08/18 04:35:59;;;;;;;;;;;;;;;;;;5012241;28;20051;-68
2021/08/18 04:38:25;;;;;;;;;;;;;;;;;;5013861;28;19925;-70
2021/08/18 04:40:52;;;;;;;;;;;;;;;;;;5016627;28;20028;-68
2021/08/18 04:43:19;;;;;;;;;;;;;;;;;;5009969;28;19940;-70
2021/08/18 04:45:46;;;;;;;;;;;;;;;;;;5016437;28;20338;-71
2021/08/18 04:48:13;;;;;;;;;;;;;;;;;;5023869;28;19964;-70
2021/08/18 04:50:40;;;;;;;;;;;;;;;;;;5024375;28;20515;-70
2021/08/18 04:53:07;;;;;;;;;;;;;;;;;;5013978;28;20483;-71
2021/08/18 04:55:34;;;;;;;;;;;;;;;;;;5010409;28;19925;-69
2021/08/18 04:58:01;;;;;;;;;;;;;;;;;;5014355;28;19933;-71
2021/08/18 05:00:28;;;;;;;;;;;;;;;;;;5009401;28;19925;-70
2021/08/18 05:02:55;;;;;;;;;;;;;;;;;;5008831;28;20298;-69
2021/08/18 05:05:22;;;;;;;;;;;;;;;;;;5014857;28;19929;-69
2021/08/18 05:07:50;;;;;;;;;;;;;;;;;;5008125;28;20019;-72
2021/08/18 05:10:17;;;;;;;;;;;;;;;;;;5016860;28;19933;-71
2021/08/18 05:12:44;;;;;;;;;;;;;;;;;;5007790;28;20282;-70
2021/08/18 05:15:11;;;;;;;;;;;;;;;;;;5017499;28;19925;-70
2021/08/18 05:17:38;;;;;;;;;;;;;;;;;;5008883;28;20016;-70
2021/08/18 05:20:05;;;;;;;;;;;;;;;;;;5011009;28;19925;-70
2021/08/18 05:22:32;;;;;;;;;;;;;;;;;;5008405;28;19932;-70
2021/08/18 05:24:59;;;;;;;;;;;;;;;;;;5007541;28;20337;-70
2021/08/18 05:27:26;;;;;;;;;;;;;;;;;;5014925;28;19929;-70
2021/08/18 05:29:54;;;;;;;;;;;;;;;;;;5006052;28;19933;-71
2021/08/18 05:32:21;;;;;;;;;;;;;;;;;;5008230;28;19930;-69
2021/08/18 05:34:48;;;;;;;;;;;;;;;;;;5007712;28;19925;-69
2021/08/18 05:37:15;;;;;;;;;;;;;;;;;;5010748;28;19925;-70
2021/08/18 05:39:42;;;;;;;;;;;;;;;;;;5017844;28;19926;-68
2021/08/18 05:42:09;;;;;;;;;;;;;;;;;;5019480;28;20298;-70
2021/08/18 05:44:36;;;;;;;;;;;;;;;;;;5017980;28;19925;-70
2021/08/18 05:47:05;;;;;;;;;;;;;;;;;;5018468;28;20019;-69
2021/08/18 05:49:33;;;;;;;;;;;;;;;;;;5006542;28;20396;-70
2021/08/18 05:52:00;;;;;;;;;;;;;;;;;;5009304;28;20009;-68
2021/08/18 05:54:34;;;;;;;;;;;;;;;;;;5015694;28;19956;-69
2021/08/18 05:57:01;;;;;;;;;;;;;;;;;;5018183;28;19929;-69
2021/08/18 05:59:28;;;;;;;;;;;;;;;;;;5015922;28;20497;-69
2021/08/18 06:01:57;;;;;;;;;;;;;;;;;;5017993;28;20020;-68
2021/08/18 06:04:23;;;;;;;;;;;;;;;;;;5012645;28;19925;-69
2021/08/18 06:06:50;;;;;;;;;;;;;;;;;;5015187;28;19930;-70
2021/08/18 06:09:17;;;;;;;;;;;;;;;;;;5018238;28;19925;-70
2021/08/18 06:11:44;;;;;;;;;;;;;;;;;;5013281;28;20128;-71
2021/08/18 06:14:11;;;;;;;;;;;;;;;;;;5017069;28;20316;-71
2021/08/18 06:16:38;;;;;;;;;;;;;;;;;;5015956;28;20353;-71
2021/08/18 06:19:05;;;;;;;;;;;;;;;;;;5013612;28;19932;-71
2021/08/18 06:21:32;;;;;;;;;;;;;;;;;;5015180;28;20309;-71
2021/08/18 06:24:04;;;;;;;;;;;;;;;;;;5013612;28;19933;-71
2021/08/18 06:26:31;;;;;;;;;;;;;;;;;;5007799;28;20301;-70
2021/08/18 06:28:58;;;;;;;;;;;;;;;;;;5015758;28;19925;-70
2021/08/18 06:31:25;;;;;;;;;;;;;;;;;;5007664;28;19925;-70
2021/08/18 06:33:53;;;;;;;;;;;;;;;;;;5019870;28;19934;-71
2021/08/18 06:36:20;;;;;;;;;;;;;;;;;;5010765;28;19935;-71
2021/08/18 06:38:47;;;;;;;;;;;;;;;;;;5006398;28;20016;-70
2021/08/18 06:41:14;;;;;;;;;;;;;;;;;;4998242;28;19933;-70
2021/08/18 06:43:41;;;;;;;;;;;;;;;;;;5009533;28;19926;-71
2021/08/18 06:46:08;;;;;;;;;;;;;;;;;;5003115;28;19926;-70
2021/08/18 06:48:35;;;;;;;;;;;;;;;;;;5002822;28;19934;-72
2021/08/18 06:51:02;;;;;;;;;;;;;;;;;;5010027;28;19926;-71
2021/08/18 06:53:29;;;;;;;;;;;;;;;;;;5002651;28;19933;-72
2021/08/18 06:55:56;;;;;;;;;;;;;;;;;;5004168;28;19926;-69
2021/08/18 06:58:23;;;;;;;;;;;;;;;;;;5005504;28;19940;-71
2021/08/18 07:00:50;;;;;;;;;;;;;;;;;;5008173;28;20409;-69
2021/08/18 07:03:17;;;;;;;;;;;;;;;;;;5007874;28;19930;-72
2021/08/18 07:05:44;;;;;;;;;;;;;;;;;;5008080;28;19925;-71
2021/08/18 07:08:11;;;;;;;;;;;;;;;;;;5013286;28;19926;-71
2021/08/18 07:10:38;;;;;;;;;;;;;;;;;;5006237;28;20027;-70
2021/08/18 07:13:05;;;;;;;;;;;;;;;;;;5011850;28;20373;-71
2021/08/18 07:15:32;;;;;;;;;;;;;;;;;;5010714;28;20314;-71
2021/08/18 07:18:01;;;;;;;;;;;;;;;;;;5005374;28;20017;-69
2021/08/18 07:20:28;;;;;;;;;;;;;;;;;;5012929;28;20353;-69
2021/08/18 07:22:55;;;;;;;;;;;;;;;;;;4998145;28;19932;-70
2021/08/18 07:25:22;;;;;;;;;;;;;;;;;;5007538;28;20305;-71
2021/08/18 07:27:49;;;;;;;;;;;;;;;;;;5005739;28;19932;-71
2021/08/18 07:30:16;;;;;;;;;;;;;;;;;;5003916;28;20392;-71
2021/08/18 07:32:42;;;;;;;;;;;;;;;;;;5010774;28;19925;-72
2021/08/18 07:35:09;;;;;;;;;;;;;;;;;;5004720;28;19926;-69
2021/08/18 07:37:37;;;;;;;;;;;;;;;;;;5006076;28;19926;-70
2021/08/18 07:40:04;;;;;;;;;;;;;;;;;;5004379;28;19925;-71
2021/08/18 07:42:31;;;;;;;;;;;;;;;;;;5006889;28;19929;-70
2021/08/18 07:44:58;;;;;;;;;;;;;;;;;;5006501;28;20321;-72
2021/08/18 07:47:25;;;;;;;;;;;;;;;;;;5005061;28;19956;-72
2021/08/18 07:49:52;;;;;;;;;;;;;;;;;;5012258;28;20060;-71
2021/08/18 07:52:19;;;;;;;;;;;;;;;;;;5002875;28;19936;-67
2021/08/18 07:54:47;;;;;;;;;;;;;;;;;;5006314;28;19985;-72
2021/08/18 07:57:14;;;;;;;;;;;;;;;;;;5016196;28;19931;-70
2021/08/18 07:59:41;;;;;;;;;;;;;;;;;;5006429;28;20306;-73
2021/08/18 08:02:08;;;;;;;;;;;;;;;;;;5009171;28;19925;-70
2021/08/18 08:04:35;;;;;;;;;;;;;;;;;;5007731;28;19926;-72
2021/08/18 08:07:02;;;;;;;;;;;;;;;;;;5014432;28;19932;-69
2021/08/18 08:09:29;;;;;;;;;;;;;;;;;;5012423;28;20027;-72
2021/08/18 08:11:56;;;;;;;;;;;;;;;;;;5013889;28;19930;-70
2021/08/18 08:14:23;;;;;;;;;;;;;;;;;;5007967;28;20301;-71
2021/08/18 08:16:50;;;;;;;;;;;;;;;;;;5014038;28;19968;-72
2021/08/18 08:19:17;;;;;;;;;;;;;;;;;;5005130;28;19931;-71
2021/08/18 08:21:44;;;;;;;;;;;;;;;;;;5009008;28;19932;-74
2021/08/18 08:24:11;;;;;;;;;;;;;;;;;;5011189;28;20429;-70
2021/08/18 08:26:38;;;;;;;;;;;;;;;;;;5002205;28;19925;-71
2021/08/18 08:29:05;;;;;;;;;;;;;;;;;;5008910;28;19925;-69
2021/08/18 08:31:32;;;;;;;;;;;;;;;;;;5010239;28;20677;-71
2021/08/18 08:34:01;;;;;;;;;;;;;;;;;;5010283;28;20022;-71
2021/08/18 08:36:28;;;;;;;;;;;;;;;;;;5014393;28;20337;-73
2021/08/18 08:38:55;;;;;;;;;;;;;;;;;;5013236;28;19930;-70
2021/08/18 08:41:22;;;;;;;;;;;;;;;;;;5010756;28;20440;-71
2021/08/18 08:43:49;;;;;;;;;;;;;;;;;;5012389;28;19931;-71
2021/08/18 08:46:16;;;;;;;;;;;;;;;;;;5010832;28;19925;-71
2021/08/18 08:48:43;;;;;;;;;;;;;;;;;;5012644;28;19925;-71
2021/08/18 08:51:09;;;;;;;;;;;;;;;;;;5009164;28;19925;-70
2021/08/18 08:53:36;;;;;;;;;;;;;;;;;;5003378;28;19932;-70
2021/08/18 08:56:03;;;;;;;;;;;;;;;;;;5003016;28;19932;-68
2021/08/18 08:58:30;;;;;;;;;;;;;;;;;;5009255;28;19930;-70
2021/08/18 09:00:57;;;;;;;;;;;;;;;;;;5009560;28;20254;-70
2021/08/18 09:03:25;;;;;;;;;;;;;;;;;;5011647;28;20385;-71
2021/08/18 09:05:52;;;;;;;;;;;;;;;;;;5007454;28;19929;-69
2021/08/18 09:08:19;;;;;;;;;;;;;;;;;;5006937;28;20229;-71
2021/08/18 09:10:46;;;;;;;;;;;;;;;;;;4999381;28;19925;-71
2021/08/18 09:13:13;;;;;;;;;;;;;;;;;;5004934;28;20419;-71
2021/08/18 09:15:40;;;;;;;;;;;;;;;;;;5010581;28;19951;-70
2021/08/18 09:18:07;;;;;;;;;;;;;;;;;;5010221;28;19930;-70
2021/08/18 09:20:34;;;;;;;;;;;;;;;;;;5015687;28;19925;-71
2021/08/18 09:23:01;;;;;;;;;;;;;;;;;;5008447;28;20009;-70
2021/08/18 09:25:28;;;;;;;;;;;;;;;;;;5008961;28;19931;-70
2021/08/18 09:27:55;;;;;;;;;;;;;;;;;;5008091;28;19932;-69
2021/08/18 09:30:22;;;;;;;;;;;;;;;;;;5001968;28;19926;-70
2021/08/18 09:32:49;;;;;;;;;;;;;;;;;;5005518;28;20383;-68
2021/08/18 09:35:17;;;;;;;;;;;;;;;;;;5019469;28;19926;-69
2021/08/18 09:37:44;;;;;;;;;;;;;;;;;;5017195;28;20015;-68
2021/08/18 09:40:11;;;;;;;;;;;;;;;;;;5014098;28;19930;-69
2021/08/18 09:42:37;;;;;;;;;;;;;;;;;;5059622;22;19929;-67
2021/08/18 09:45:04;;;;;;;;;;;;;;;;;;5054197;28;20067;-65
2021/08/18 09:47:31;;;;;;;;;;;;;;;;;;5052473;28;19932;-66
2021/08/18 09:49:58;;;;;;;;;;;;;;;;;;5051774;28;20261;-67
2021/08/18 09:52:25;;;;;;;;;;;;;;;;;;5040453;28;19932;-67
2021/08/18 09:54:52;;;;;;;;;;;;;;;;;;5045598;28;19931;-66
2021/08/18 09:57:19;;;;;;;;;;;;;;;;;;5055170;28;19928;-67
2021/08/18 09:59:48;;;;;;;;;;;;;;;;;;5044441;28;19947;-66
2021/08/18 10:02:17;;;;;;;;;;;;;;;;;;5049176;28;19984;-66
2021/08/18 10:04:44;;;;;;;;;;;;;;;;;;5050145;28;19947;-67
2021/08/18 10:07:11;;;;;;;;;;;;;;;;;;5053320;28;20323;-67
2021/08/18 10:09:38;;;;;;;;;;;;;;;;;;5050854;28;19936;-68
2021/08/18 10:12:05;;;;;;;;;;;;;;;;;;5054821;28;19939;-66
2021/08/18 10:14:32;;;;;;;;;;;;;;;;;;5050184;28;20019;-65
2021/08/18 10:16:59;;;;;;;;;;;;;;;;;;5053363;28;19931;-67
2021/08/18 10:19:26;;;;;;;;;;;;;;;;;;5053337;28;19925;-67
2021/08/18 10:21:53;;;;;;;;;;;;;;;;;;5047909;28;20292;-66
2021/08/18 10:24:19;;;;;;;;;;;;;;;;;;5044698;28;20403;-67
2021/08/18 10:26:46;;;;;;;;;;;;;;;;;;5044556;28;19925;-67
2021/08/18 10:29:16;;;;;;;;;;;;;;;;;;5045430;28;19986;-66
2021/08/18 10:31:43;;;;;;;;;;;;;;;;;;5044742;28;20343;-67
2021/08/18 10:34:09;;;;;;;;;;;;;;;;;;5043764;28;19961;-67
2021/08/18 10:36:37;;;;;;;;;;;;;;;;;;5043861;28;19925;-66
2021/08/18 10:39:04;;;;;;;;;;;;;;;;;;5045626;28;20364;-66
2021/08/18 10:41:31;;;;;;;;;;;;;;;;;;5033491;28;20352;-67
2021/08/18 10:44:01;;;;;;;;;;;;;;;;;;5047033;28;19939;-67
2021/08/18 10:46:27;;;;;;;;;;;;;;;;;;5042735;28;19932;-67
2021/08/18 10:48:54;;;;;;;;;;;;;;;;;;5048297;28;19925;-67
2021/08/18 10:51:21;;;;;;;;;;;;;;;;;;5041511;28;19975;-67
2021/08/18 10:53:49;;;;;;;;;;;;;;;;;;5040478;28;19925;-66
2021/08/18 10:56:16;;;;;;;;;;;;;;;;;;5045182;28;19925;-67
2021/08/18 10:58:43;;;;;;;;;;;;;;;;;;5040067;28;19925;-67
2021/08/18 11:01:10;;;;;;;;;;;;;;;;;;5045620;28;20292;-66
2021/08/18 11:03:37;;;;;;;;;;;;;;;;;;5044093;28;20033;-67
2021/08/18 11:06:08;;;;;;;;;;;;;;;;;;5044840;28;20236;-67
2021/08/18 11:08:35;;;;;;;;;;;;;;;;;;5041482;28;20382;-67
2021/08/18 11:11:03;;;;;;;;;;;;;;;;;;5046479;28;20019;-67
2021/08/18 11:13:30;;;;;;;;;;;;;;;;;;5039818;28;19929;-68
2021/08/18 11:15:57;;;;;;;;;;;;;;;;;;5045002;28;19990;-67
2021/08/18 11:18:24;;;;;;;;;;;;;;;;;;5040611;28;19929;-68
2021/08/18 11:20:52;;;;;;;;;;;;;;;;;;5042704;28;19939;-66
2021/08/18 11:23:19;;;;;;;;;;;;;;;;;;5044759;28;20307;-66
2021/08/18 11:25:47;;;;;;;;;;;;;;;;;;5044753;28;20011;-67
2021/08/18 11:28:14;;;;;;;;;;;;;;;;;;5046261;28;19933;-67
2021/08/18 11:30:41;;;;;;;;;;;;;;;;;;5039323;28;19957;-67
2021/08/18 11:33:08;;;;;;;;;;;;;;;;;;5043019;28;19929;-66
2021/08/18 11:35:35;;;;;;;;;;;;;;;;;;5043899;28;19925;-66
2021/08/18 11:38:02;;;;;;;;;;;;;;;;;;5043397;28;19939;-65
2021/08/18 11:40:30;;;;;;;;;;;;;;;;;;5040114;28;19925;-65
2021/08/18 11:42:57;;;;;;;;;;;;;;;;;;5045320;28;20296;-67
2021/08/18 11:45:25;;;;;;;;;;;;;;;;;;5041728;28;20351;-66
2021/08/18 11:47:52;;;;;;;;;;;;;;;;;;5042033;28;19929;-67
2021/08/18 11:50:19;;;;;;;;;;;;;;;;;;5041117;28;19929;-66
2021/08/18 11:52:47;;;;;;;;;;;;;;;;;;5045055;28;19971;-67
2021/08/18 11:55:16;;;;;;;;;;;;;;;;;;5030414;28;19939;-66
2021/08/18 11:57:43;;;;;;;;;;;;;;;;;;5042801;28;19929;-67
2021/08/18 12:00:10;;;;;;;;;;;;;;;;;;5045956;28;20387;-67
2021/08/18 12:02:38;;;;;;;;;;;;;;;;;;5044653;28;20020;-67
2021/08/18 12:05:05;;;;;;;;;;;;;;;;;;5044522;28;20394;-65
2021/08/18 12:07:32;;;;;;;;;;;;;;;;;;5042565;28;19925;-66
2021/08/18 12:09:59;;;;;;;;;;;;;;;;;;5045824;28;19931;-67
2021/08/18 12:12:26;;;;;;;;;;;;;;;;;;5042031;28;19967;-66
2021/08/18 12:14:54;;;;;;;;;;;;;;;;;;5044079;28;20398;-66
2021/08/18 12:17:21;;;;;;;;;;;;;;;;;;5045652;28;19983;-67
2021/08/18 12:19:48;;;;;;;;;;;;;;;;;;5043532;28;19932;-66
2021/08/18 12:22:15;;;;;;;;;;;;;;;;;;5042516;28;19925;-66
2021/08/18 12:24:42;;;;;;;;;;;;;;;;;;5043967;28;19925;-66
2021/08/18 12:27:09;;;;;;;;;;;;;;;;;;5042393;28;19925;-66
2021/08/18 12:29:37;;;;;;;;;;;;;;;;;;5041254;28;19925;-66
2021/08/18 12:32:04;;;;;;;;;;;;;;;;;;5039913;28;19929;-65
2021/08/18 12:34:31;;;;;;;;;;;;;;;;;;5041811;28;20479;-66
2021/08/18 12:36:58;;;;;;;;;;;;;;;;;;5038603;28;20447;-66
2021/08/18 12:39:25;;;;;;;;;;;;;;;;;;5042076;28;20274;-67
2021/08/18 12:41:52;;;;;;;;;;;;;;;;;;5043271;28;19940;-65
2021/08/18 12:44:19;;;;;;;;;;;;;;;;;;5041128;28;19951;-66
2021/08/18 12:46:46;;;;;;;;;;;;;;;;;;5045914;28;19925;-66
2021/08/18 12:49:13;;;;;;;;;;;;;;;;;;5041752;28;19924;-66
2021/08/18 12:51:40;;;;;;;;;;;;;;;;;;5044767;28;20344;-66
2021/08/18 12:54:07;;;;;;;;;;;;;;;;;;5038994;28;19948;-65
2021/08/18 12:56:34;;;;;;;;;;;;;;;;;;5034010;28;20024;-66
2021/08/18 12:59:01;;;;;;;;;;;;;;;;;;5040782;28;19976;-66
2021/08/18 13:01:28;;;;;;;;;;;;;;;;;;5036908;28;19933;-66
2021/08/18 13:03:55;;;;;;;;;;;;;;;;;;5047253;28;19925;-64
2021/08/18 13:06:22;;;;;;;;;;;;;;;;;;5046544;28;19925;-65
2021/08/18 13:08:49;;;;;;;;;;;;;;;;;;5047996;28;19925;-65
2021/08/18 13:11:16;;;;;;;;;;;;;;;;;;5045423;28;19925;-66
2021/08/18 13:13:43;;;;;;;;;;;;;;;;;;5044307;28;20408;-65
2021/08/18 13:16:10;;;;;;;;;;;;;;;;;;5039046;28;19929;-67
2021/08/18 13:18:36;;;;;;;;;;;;;;;;;;5046639;28;19932;-67
2021/08/18 13:21:04;;;;;;;;;;;;;;;;;;5038825;28;19925;-65
2021/08/18 13:23:31;;;;;;;;;;;;;;;;;;5043453;28;19944;-67
2021/08/18 13:25:58;;;;;;;;;;;;;;;;;;5044306;28;19925;-68
2021/08/18 13:28:25;;;;;;;;;;;;;;;;;;5047578;28;20023;-67
2021/08/18 13:30:51;;;;;;;;;;;;;;;;;;5042785;28;19933;-65
2021/08/18 13:33:19;;;;;;;;;;;;;;;;;;5044435;28;19928;-67
2021/08/18 13:35:46;;;;;;;;;;;;;;;;;;5040694;28;19925;-67
2021/08/18 13:38:13;;;;;;;;;;;;;;;;;;5043042;28;19924;-66
2021/08/18 13:40:39;;;;;;;;;;;;;;;;;;5047439;28;19925;-67
2021/08/18 13:43:06;;;;;;;;;;;;;;;;;;5048671;28;20440;-67
2021/08/18 13:45:33;;;;;;;;;;;;;;;;;;5044530;28;19968;-67
2021/08/18 13:48:00;;;;;;;;;;;;;;;;;;5040823;28;20040;-67
2021/08/18 13:50:28;;;;;;;;;;;;;;;;;;5046423;28;19935;-65
2021/08/18 13:52:55;;;;;;;;;;;;;;;;;;5047393;28;19968;-67
2021/08/18 13:55:22;;;;;;;;;;;;;;;;;;5047479;28;19940;-66
2021/08/18 13:57:49;;;;;;;;;;;;;;;;;;5040954;28;19928;-65
2021/08/18 14:00:16;;;;;;;;;;;;;;;;;;5047481;28;21457;-66
2021/08/18 14:02:43;;;;;;;;;;;;;;;;;;5051208;28;19924;-65
2021/08/18 14:05:10;;;;;;;;;;;;;;;;;;5049609;28;19925;-66
2021/08/18 14:07:37;;;;;;;;;;;;;;;;;;5048000;28;19976;-66
2021/08/18 14:10:03;;;;;;;;;;;;;;;;;;5046346;28;19925;-65
2021/08/18 14:12:31;;;;;;;;;;;;;;;;;;5047457;28;19925;-66
2021/08/18 14:14:58;;;;;;;;;;;;;;;;;;5051744;28;19925;-66
2021/08/18 14:17:26;;;;;;;;;;;;;;;;;;5045417;28;19925;-65
2021/08/18 14:19:53;;;;;;;;;;;;;;;;;;5039722;28;20023;-65
2021/08/18 14:22:20;;;;;;;;;;;;;;;;;;5049652;28;19929;-66
2021/08/18 14:24:47;;;;;;;;;;;;;;;;;;5045785;28;20430;-66
2021/08/18 14:27:14;;;;;;;;;;;;;;;;;;5047090;28;19925;-67
2021/08/18 14:29:41;;;;;;;;;;;;;;;;;;5041562;28;19931;-66
2021/08/18 14:32:08;;;;;;;;;;;;;;;;;;5050927;28;19924;-66
2021/08/18 14:34:35;;;;;;;;;;;;;;;;;;5050256;28;20304;-66
2021/08/18 14:37:04;;;;;;;;;;;;;;;;;;5050631;28;19964;-65
2021/08/18 14:39:31;;;;;;;;;;;;;;;;;;5044246;28;19932;-66
2021/08/18 14:41:58;;;;;;;;;;;;;;;;;;5042675;28;19940;-65
2021/08/18 14:44:25;;;;;;;;;;;;;;;;;;5043044;28;20004;-67
2021/08/18 14:46:52;;;;;;;;;;;;;;;;;;5033693;28;19936;-66
2021/08/18 14:49:18;;;;;;;;;;;;;;;;;;5042102;28;19925;-66
2021/08/18 14:51:45;;;;;;;;;;;;;;;;;;5041941;28;19929;-66
2021/08/18 14:54:16;;;;;;;;;;;;;;;;;;5041740;28;19932;-65
2021/08/18 14:56:43;;;;;;;;;;;;;;;;;;5048093;28;19925;-65
2021/08/18 14:59:10;;;;;;;;;;;;;;;;;;5043840;28;19929;-66
2021/08/18 15:01:36;;;;;;;;;;;;;;;;;;5040233;28;19936;-66
2021/08/18 15:04:03;;;;;;;;;;;;;;;;;;5045867;28;20300;-66
2021/08/18 15:06:30;;;;;;;;;;;;;;;;;;5042292;28;19960;-65
2021/08/18 15:08:57;;;;;;;;;;;;;;;;;;5041675;28;19932;-67
2021/08/18 15:11:24;;;;;;;;;;;;;;;;;;5044387;28;21155;-66
2021/08/18 15:13:51;;;;;;;;;;;;;;;;;;5043673;28;19933;-66
2021/08/18 15:16:18;;;;;;;;;;;;;;;;;;5041183;28;20024;-66
2021/08/18 15:18:45;;;;;;;;;;;;;;;;;;5041231;28;19925;-66
2021/08/18 15:21:12;;;;;;;;;;;;;;;;;;5043252;28;20362;-66
2021/08/18 15:23:39;;;;;;;;;;;;;;;;;;5043614;28;19929;-64
2021/08/18 15:26:06;;;;;;;;;;;;;;;;;;5044822;28;20008;-66
2021/08/18 15:28:33;;;;;;;;;;;;;;;;;;5043254;28;19925;-66
2021/08/18 15:31:00;;;;;;;;;;;;;;;;;;5045482;28;20335;-66
2021/08/18 15:33:27;;;;;;;;;;;;;;;;;;5044577;28;19975;-67
2021/08/18 15:35:54;;;;;;;;;;;;;;;;;;5040796;28;19929;-67
2021/08/18 15:38:21;;;;;;;;;;;;;;;;;;5043508;28;19925;-67
2021/08/18 15:40:48;;;;;;;;;;;;;;;;;;5055396;22;19932;-66
2021/08/18 15:43:15;;;;;;;;;;;;;;;;;;5021550;28;20329;-66
2021/08/18 15:45:42;;;;;;;;;;;;;;;;;;5023452;28;19955;-69
2021/08/18 15:48:09;;;;;;;;;;;;;;;;;;5019516;28;20036;-69
2021/08/18 15:50:36;;;;;;;;;;;;;;;;;;5023607;28;20426;-69
2021/08/18 15:53:03;;;;;;;;;;;;;;;;;;5025500;28;19929;-66
2021/08/18 15:55:30;;;;;;;;;;;;;;;;;;5028075;28;20019;-67
2021/08/18 15:57:57;;;;;;;;;;;;;;;;;;5026746;28;20385;-67
2021/08/18 16:00:27;;;;;;;;;;;;;;;;;;5028975;28;20024;-66
2021/08/18 16:02:54;;;;;;;;;;;;;;;;;;5024992;28;19925;-67
2021/08/18 16:05:21;;;;;;;;;;;;;;;;;;5026709;28;20299;-66
2021/08/18 16:07:48;;;;;;;;;;;;;;;;;;5029427;28;19925;-64
2021/08/18 16:10:15;;;;;;;;;;;;;;;;;;5027249;28;20381;-68
2021/08/18 16:12:42;;;;;;;;;;;;;;;;;;5025084;28;19925;-66
2021/08/18 16:15:09;;;;;;;;;;;;;;;;;;5023432;28;19974;-68
2021/08/18 16:17:36;;;;;;;;;;;;;;;;;;5024839;28;19932;-64
2021/08/18 16:20:03;;;;;;;;;;;;;;;;;;5027226;28;19947;-66
2021/08/18 16:22:30;;;;;;;;;;;;;;;;;;5028105;28;19925;-67
2021/08/18 16:24:57;;;;;;;;;;;;;;;;;;5028331;28;20008;-67
2021/08/18 16:27:24;;;;;;;;;;;;;;;;;;5025672;28;19929;-68
2021/08/18 16:29:51;;;;;;;;;;;;;;;;;;5022688;28;20377;-67
2021/08/18 16:32:20;;;;;;;;;;;;;;;;;;5026866;28;19932;-68
2021/08/18 16:34:47;;;;;;;;;;;;;;;;;;5025128;28;19928;-67
2021/08/18 16:37:14;;;;;;;;;;;;;;;;;;5026023;28;19933;-68
2021/08/18 16:39:43;;;;;;;;;;;;;;;;;;5026725;28;19926;-71
2021/08/18 16:42:10;;;;;;;;;;;;;;;;;;5022043;28;20412;-66
2021/08/18 16:44:37;;;;;;;;;;;;;;;;;;5028643;28;19932;-67